Broadmeadows, Australia
Current Conditions -  °F | °C
As of 2:00 PM on Wednesday 26 Nov 2014 (Local Time) from YMEN Reporting Station
Broken Clouds Broken Clouds  
Wind Chill: 64°   Ceiling: 4500
Heat Index: 64°   Visibility: 6mi
Dew Point: 50°   Wind: 7mph
Humidity: 59%   Direction: 170°S
Pressure: 30.15"   Gusts: NA
Location:  37.68°S, 144.92°E
Report Text: YMEN 260300Z AUTO 17006KT 110V200 9999 // BKN045 18/10 Q1021
Loading
Personal Weather Stations






























Interactive Weather Map New forecast layout! Learn more

10-Day Weather Forecast

Advertisements
Track Severe Weather on mobile